KFST/FST METAR and TAF weather

Enter ICAO airport designator
Station Type Date Time Source
KFST METAR 2019/06/27 03:53 UTC NOAA

KFST 270353Z AUTO 14014G24KT 10SM CLR 26/18 A3012 RMK AO2 SLP151 T02610183


Station Type Date Time Source
KFST Decoded METAR 2019/06/27 03:53 UTC NOAA

FORT STOCKTON PECOS CO AIRPORT , TX, United States (KFST) 30-55N 102-55W 918M
Jun 26, 2019 - 11:53 PM EDT / 2019.06.27 0353 UTC
Wind: from the SE (140 degrees) at 16 MPH (14 KT) gusting to 28 MPH (24 KT):0
Visibility: 10 mile(s):0
Sky conditions: clear
Temperature: 79.0 F (26.1 C)
Dew Point: 64.9 F (18.3 C)
Relative Humidity: 62%
Pressure (altimeter): 30.12 in. Hg (1019 hPa)
ob: KFST 270353Z AUTO 14014G24KT 10SM CLR 26/18 A3012 RMK AO2 SLP151 T02610183
cycle: 4

Station Type Date Time Source
KFST TAF 2019/06/26 18:30 UTC NOAA

TAF KFST 261727Z 2618/2718 13013G23KT P6SM FEW060

Example: see airport list